sensor_id;sensor_type;location;lat;lon;timestamp;temperature;humidity
3684;DHT22;1858;48.716;9.648;2022-12-19T00:00:04;-0.90;45.70
3684;DHT22;1858;48.716;9.648;2022-12-19T00:02:33;-0.90;46.10
3684;DHT22;1858;48.716;9.648;2022-12-19T00:05:01;-1.00;44.20
3684;DHT22;1858;48.716;9.648;2022-12-19T00:07:29;-1.00;47.70
3684;DHT22;1858;48.716;9.648;2022-12-19T00:09:58;-1.00;40.10
3684;DHT22;1858;48.716;9.648;2022-12-19T00:12:26;-1.00;40.50
3684;DHT22;1858;48.716;9.648;2022-12-19T00:14:54;-0.90;44.60
3684;DHT22;1858;48.716;9.648;2022-12-19T00:17:23;-1.10;45.60
3684;DHT22;1858;48.716;9.648;2022-12-19T00:19:51;-1.20;65.40
3684;DHT22;1858;48.716;9.648;2022-12-19T00:22:20;-1.20;79.80
3684;DHT22;1858;48.716;9.648;2022-12-19T00:24:48;-1.20;84.00
3684;DHT22;1858;48.716;9.648;2022-12-19T00:27:16;-1.20;81.90
3684;DHT22;1858;48.716;9.648;2022-12-19T00:29:45;-1.30;90.30
3684;DHT22;1858;48.716;9.648;2022-12-19T00:32:13;-1.30;99.90
3684;DHT22;1858;48.716;9.648;2022-12-19T00:34:42;-1.30;99.90
3684;DHT22;1858;48.716;9.648;2022-12-19T00:37:10;-1.40;99.90
3684;DHT22;1858;48.716;9.648;2022-12-19T00:39:38;-1.40;99.90
3684;DHT22;1858;48.716;9.648;2022-12-19T00:42:07;-1.30;99.90
3684;DHT22;1858;48.716;9.648;2022-12-19T00:44:35;-1.30;99.90
3684;DHT22;1858;48.716;9.648;2022-12-19T00:47:04;-1.40;99.90
3684;DHT22;1858;48.716;9.648;2022-12-19T00:49:32;-1.40;99.90
3684;DHT22;1858;48.716;9.648;2022-12-19T00:52:00;-1.30;99.90
3684;DHT22;1858;48.716;9.648;2022-12-19T00:54:29;-1.30;99.90
3684;DHT22;1858;48.716;9.648;2022-12-19T00:56:57;-1.30;99.90
3684;DHT22;1858;48.716;9.648;2022-12-19T00:59:25;-1.30;99.90
3684;DHT22;1858;48.716;9.648;2022-12-19T01:01:54;-1.30;99.90
3684;DHT22;1858;48.716;9.648;2022-12-19T01:04:22;-1.20;99.90
3684;DHT22;1858;48.716;9.648;2022-12-19T01:06:51;-1.30;99.90
3684;DHT22;1858;48.716;9.648;2022-12-19T01:09:19;-1.20;99.90
3684;DHT22;1858;48.716;9.648;2022-12-19T01:11:49;-1.10;99.90
3684;DHT22;1858;48.716;9.648;2022-12-19T01:14:35;-1.10;99.90
3684;DHT22;1858;48.716;9.648;2022-12-19T01:17:03;-1.10;99.90
3684;DHT22;1858;48.716;9.648;2022-12-19T01:19:31;-1.20;99.90
3684;DHT22;1858;48.716;9.648;2022-12-19T01:22:00;-1.20;99.90
3684;DHT22;1858;48.716;9.648;2022-12-19T01:24:28;-1.20;99.90
3684;DHT22;1858;48.716;9.648;2022-12-19T01:26:57;-1.20;99.90
3684;DHT22;1858;48.716;9.648;2022-12-19T01:29:25;-1.20;99.90
3684;DHT22;1858;48.716;9.648;2022-12-19T01:31:53;-1.20;99.90
3684;DHT22;1858;48.716;9.648;2022-12-19T01:34:22;-1.10;99.90
3684;DHT22;1858;48.716;9.648;2022-12-19T01:36:50;-1.00;99.90
3684;DHT22;1858;48.716;9.648;2022-12-19T01:39:18;-1.10;99.90
3684;DHT22;1858;48.716;9.648;2022-12-19T01:41:47;-1.10;99.90
3684;DHT22;1858;48.716;9.648;2022-12-19T01:44:15;-1.00;99.90
3684;DHT22;1858;48.716;9.648;2022-12-19T01:46:51;-1.00;99.90
3684;DHT22;1858;48.716;9.648;2022-12-19T01:49:24;-1.00;99.90
3684;DHT22;1858;48.716;9.648;2022-12-19T01:51:51;-0.90;99.90
3684;DHT22;1858;48.716;9.648;2022-12-19T01:54:24;-0.80;99.90
3684;DHT22;1858;48.716;9.648;2022-12-19T01:56:54;-0.70;99.90
3684;DHT22;1858;48.716;9.648;2022-12-19T01:59:27;-0.60;99.90
3684;DHT22;1858;48.716;9.648;2022-12-19T02:02:22;-0.50;99.90
3684;DHT22;1858;48.716;9.648;2022-12-19T02:04:50;-0.40;99.90
3684;DHT22;1858;48.716;9.648;2022-12-19T02:07:21;-0.40;99.90
3684;DHT22;1858;48.716;9.648;2022-12-19T02:10:09;-0.40;99.90
3684;DHT22;1858;48.716;9.648;2022-12-19T02:12:40;-0.50;99.90
3684;DHT22;1858;48.716;9.648;2022-12-19T02:15:10;-0.70;99.90
3684;DHT22;1858;48.716;9.648;2022-12-19T02:20:42;-0.50;99.90
3684;DHT22;1858;48.716;9.648;2022-12-19T02:26:33;-0.30;66.90
3684;DHT22;1858;48.716;9.648;2022-12-19T02:31:55;-0.50;80.50
3684;DHT22;1858;48.716;9.648;2022-12-19T02:34:36;-0.60;86.90
3684;DHT22;1858;48.716;9.648;2022-12-19T02:37:08;-0.70;99.90
3684;DHT22;1858;48.716;9.648;2022-12-19T02:39:43;-0.70;99.90
3684;DHT22;1858;48.716;9.648;2022-12-19T02:42:34;-0.60;99.90
3684;DHT22;1858;48.716;9.648;2022-12-19T02:45:06;-0.70;99.90
3684;DHT22;1858;48.716;9.648;2022-12-19T02:47:52;-0.70;99.90
3684;DHT22;1858;48.716;9.648;2022-12-19T02:50:21;-0.70;99.90
3684;DHT22;1858;48.716;9.648;2022-12-19T02:56:14;-0.60;99.90
3684;DHT22;1858;48.716;9.648;2022-12-19T03:07:20;-0.40;99.90
3684;DHT22;1858;48.716;9.648;2022-12-19T03:09:50;-0.30;99.90
3684;DHT22;1858;48.716;9.648;2022-12-19T03:12:25;-0.20;99.90
3684;DHT22;1858;48.716;9.648;2022-12-19T03:14:54;-0.30;99.90
3684;DHT22;1858;48.716;9.648;2022-12-19T03:17:25;-0.20;99.90
3684;DHT22;1858;48.716;9.648;2022-12-19T03:19:54;0.00;99.90
3684;DHT22;1858;48.716;9.648;2022-12-19T03:22:22;0.00;99.60
3684;DHT22;1858;48.716;9.648;2022-12-19T03:24:51;0.10;93.30
3684;DHT22;1858;48.716;9.648;2022-12-19T03:27:31;0.00;62.30
3684;DHT22;1858;48.716;9.648;2022-12-19T03:30:19;0.00;62.50
3684;DHT22;1858;48.716;9.648;2022-12-19T03:32:47;0.00;47.90
3684;DHT22;1858;48.716;9.648;2022-12-19T03:35:29;0.00;43.90
3684;DHT22;1858;48.716;9.648;2022-12-19T03:37:59;0.00;66.40
3684;DHT22;1858;48.716;9.648;2022-12-19T03:40:28;-0.20;98.00
3684;DHT22;1858;48.716;9.648;2022-12-19T03:43:00;-0.20;99.90
3684;DHT22;1858;48.716;9.648;2022-12-19T03:46:15;-0.20;99.90
3684;DHT22;1858;48.716;9.648;2022-12-19T03:48:51;-0.30;99.90
3684;DHT22;1858;48.716;9.648;2022-12-19T03:51:42;-0.40;99.90
3684;DHT22;1858;48.716;9.648;2022-12-19T03:57:33;-0.30;99.90
3684;DHT22;1858;48.716;9.648;2022-12-19T04:00:09;-0.20;99.90
3684;DHT22;1858;48.716;9.648;2022-12-19T04:02:38;-0.10;99.90
3684;DHT22;1858;48.716;9.648;2022-12-19T04:05:09;-0.20;99.90
3684;DHT22;1858;48.716;9.648;2022-12-19T04:07:39;-0.20;99.90
3684;DHT22;1858;48.716;9.648;2022-12-19T04:13:06;-0.10;99.90
3684;DHT22;1858;48.716;9.648;2022-12-19T04:18:17;0.00;99.90
3684;DHT22;1858;48.716;9.648;2022-12-19T04:20:54;0.10;99.90
3684;DHT22;1858;48.716;9.648;2022-12-19T04:23:35;0.10;99.90
3684;DHT22;1858;48.716;9.648;2022-12-19T04:26:00;0.10;99.90
3684;DHT22;1858;48.716;9.648;2022-12-19T04:31:19;0.30;99.90
3684;DHT22;1858;48.716;9.648;2022-12-19T04:33:48;0.40;99.90
3684;DHT22;1858;48.716;9.648;2022-12-19T04:36:16;0.40;99.90
3684;DHT22;1858;48.716;9.648;2022-12-19T04:38:45;0.50;99.90
3684;DHT22;1858;48.716;9.648;2022-12-19T04:41:13;0.40;99.90
3684;DHT22;1858;48.716;9.648;2022-12-19T04:43:42;0.40;99.90
3684;DHT22;1858;48.716;9.648;2022-12-19T04:46:10;0.40;99.90
3684;DHT22;1858;48.716;9.648;2022-12-19T04:48:38;0.50;99.90
3684;DHT22;1858;48.716;9.648;2022-12-19T04:51:07;0.40;99.90
3684;DHT22;1858;48.716;9.648;2022-12-19T04:53:35;0.50;99.90
3684;DHT22;1858;48.716;9.648;2022-12-19T04:56:05;0.40;99.90
3684;DHT22;1858;48.716;9.648;2022-12-19T04:58:34;0.40;99.90
3684;DHT22;1858;48.716;9.648;2022-12-19T05:01:04;0.50;99.90
3684;DHT22;1858;48.716;9.648;2022-12-19T05:03:33;0.70;99.90
3684;DHT22;1858;48.716;9.648;2022-12-19T05:06:07;0.60;99.90
3684;DHT22;1858;48.716;9.648;2022-12-19T05:08:37;0.70;99.90
3684;DHT22;1858;48.716;9.648;2022-12-19T05:11:08;0.70;99.90
3684;DHT22;1858;48.716;9.648;2022-12-19T05:13:36;0.70;99.90
3684;DHT22;1858;48.716;9.648;2022-12-19T05:16:07;0.70;99.90
3684;DHT22;1858;48.716;9.648;2022-12-19T05:18:37;0.70;99.90
3684;DHT22;1858;48.716;9.648;2022-12-19T05:21:09;0.70;99.90
3684;DHT22;1858;48.716;9.648;2022-12-19T05:23:37;0.70;99.90
3684;DHT22;1858;48.716;9.648;2022-12-19T05:26:06;0.80;99.90
3684;DHT22;1858;48.716;9.648;2022-12-19T05:28:35;0.90;99.90
3684;DHT22;1858;48.716;9.648;2022-12-19T05:31:09;0.90;99.90
3684;DHT22;1858;48.716;9.648;2022-12-19T05:33:39;0.90;99.90
3684;DHT22;1858;48.716;9.648;2022-12-19T05:36:10;0.90;99.90
3684;DHT22;1858;48.716;9.648;2022-12-19T05:38:38;0.90;99.90
3684;DHT22;1858;48.716;9.648;2022-12-19T05:41:08;0.80;99.90
3684;DHT22;1858;48.716;9.648;2022-12-19T05:43:37;0.80;99.90
3684;DHT22;1858;48.716;9.648;2022-12-19T05:46:06;0.80;99.90
3684;DHT22;1858;48.716;9.648;2022-12-19T05:48:43;0.90;99.90
3684;DHT22;1858;48.716;9.648;2022-12-19T05:51:12;0.90;99.90
3684;DHT22;1858;48.716;9.648;2022-12-19T05:53:40;1.00;99.90
3684;DHT22;1858;48.716;9.648;2022-12-19T05:56:11;1.10;99.90
3684;DHT22;1858;48.716;9.648;2022-12-19T05:58:40;1.10;99.90
3684;DHT22;1858;48.716;9.648;2022-12-19T06:01:14;1.10;99.90
3684;DHT22;1858;48.716;9.648;2022-12-19T06:03:43;1.30;99.90
3684;DHT22;1858;48.716;9.648;2022-12-19T06:06:31;1.40;99.90
3684;DHT22;1858;48.716;9.648;2022-12-19T06:09:00;1.40;99.90
3684;DHT22;1858;48.716;9.648;2022-12-19T06:11:29;1.60;99.90
3684;DHT22;1858;48.716;9.648;2022-12-19T06:13:57;1.70;99.90
3684;DHT22;1858;48.716;9.648;2022-12-19T06:16:25;1.70;99.90
3684;DHT22;1858;48.716;9.648;2022-12-19T06:18:54;1.90;99.90
3684;DHT22;1858;48.716;9.648;2022-12-19T06:21:22;1.90;99.90
3684;DHT22;1858;48.716;9.648;2022-12-19T06:23:51;1.90;99.90
3684;DHT22;1858;48.716;9.648;2022-12-19T06:26:21;2.00;99.90
3684;DHT22;1858;48.716;9.648;2022-12-19T06:28:50;1.90;99.90
3684;DHT22;1858;48.716;9.648;2022-12-19T06:31:21;2.00;99.90
3684;DHT22;1858;48.716;9.648;2022-12-19T06:33:51;2.00;99.90
3684;DHT22;1858;48.716;9.648;2022-12-19T06:36:21;2.00;99.90
3684;DHT22;1858;48.716;9.648;2022-12-19T06:38:51;2.10;99.90
3684;DHT22;1858;48.716;9.648;2022-12-19T06:41:19;2.20;99.90
3684;DHT22;1858;48.716;9.648;2022-12-19T06:44:08;2.30;99.90
3684;DHT22;1858;48.716;9.648;2022-12-19T06:46:37;2.40;99.90
3684;DHT22;1858;48.716;9.648;2022-12-19T06:49:05;2.50;99.90
3684;DHT22;1858;48.716;9.648;2022-12-19T06:51:34;2.60;99.90
3684;DHT22;1858;48.716;9.648;2022-12-19T06:54:03;2.80;99.90
3684;DHT22;1858;48.716;9.648;2022-12-19T06:56:36;2.90;99.90
3684;DHT22;1858;48.716;9.648;2022-12-19T06:59:05;2.90;99.90
3684;DHT22;1858;48.716;9.648;2022-12-19T07:01:49;3.00;99.90
3684;DHT22;1858;48.716;9.648;2022-12-19T07:04:17;3.10;99.90
3684;DHT22;1858;48.716;9.648;2022-12-19T07:06:46;3.00;99.90
3684;DHT22;1858;48.716;9.648;2022-12-19T07:09:15;3.10;99.90
3684;DHT22;1858;48.716;9.648;2022-12-19T07:11:44;2.90;99.90
3684;DHT22;1858;48.716;9.648;2022-12-19T07:14:13;3.00;99.90
3684;DHT22;1858;48.716;9.648;2022-12-19T07:16:41;3.00;99.90
3684;DHT22;1858;48.716;9.648;2022-12-19T07:19:10;3.10;99.90
3684;DHT22;1858;48.716;9.648;2022-12-19T07:21:39;3.10;99.90
3684;DHT22;1858;48.716;9.648;2022-12-19T07:24:08;3.20;99.90
3684;DHT22;1858;48.716;9.648;2022-12-19T07:26:37;3.10;99.90
3684;DHT22;1858;48.716;9.648;2022-12-19T07:29:07;3.20;99.90
3684;DHT22;1858;48.716;9.648;2022-12-19T07:31:35;3.20;99.90
3684;DHT22;1858;48.716;9.648;2022-12-19T07:34:04;3.20;99.90
3684;DHT22;1858;48.716;9.648;2022-12-19T07:36:32;3.20;99.90
3684;DHT22;1858;48.716;9.648;2022-12-19T07:39:01;3.20;99.90
3684;DHT22;1858;48.716;9.648;2022-12-19T07:41:30;3.10;99.90
3684;DHT22;1858;48.716;9.648;2022-12-19T07:43:58;3.10;99.90
3684;DHT22;1858;48.716;9.648;2022-12-19T07:46:28;3.20;99.90
3684;DHT22;1858;48.716;9.648;2022-12-19T07:48:59;3.10;99.90
3684;DHT22;1858;48.716;9.648;2022-12-19T07:51:27;3.10;99.90
3684;DHT22;1858;48.716;9.648;2022-12-19T07:53:55;3.00;99.90
3684;DHT22;1858;48.716;9.648;2022-12-19T07:56:24;3.00;99.90
3684;DHT22;1858;48.716;9.648;2022-12-19T07:58:52;3.00;99.90
3684;DHT22;1858;48.716;9.648;2022-12-19T08:01:21;3.10;99.90
3684;DHT22;1858;48.716;9.648;2022-12-19T08:03:49;3.10;99.90
3684;DHT22;1858;48.716;9.648;2022-12-19T08:06:19;3.20;99.90
3684;DHT22;1858;48.716;9.648;2022-12-19T08:08:47;3.20;99.90
3684;DHT22;1858;48.716;9.648;2022-12-19T08:11:18;3.40;99.90
3684;DHT22;1858;48.716;9.648;2022-12-19T08:13:48;3.40;99.90
3684;DHT22;1858;48.716;9.648;2022-12-19T08:16:17;3.50;99.90
3684;DHT22;1858;48.716;9.648;2022-12-19T08:18:45;3.60;99.90
3684;DHT22;1858;48.716;9.648;2022-12-19T08:21:14;3.50;99.90
3684;DHT22;1858;48.716;9.648;2022-12-19T08:23:42;3.60;99.90
3684;DHT22;1858;48.716;9.648;2022-12-19T08:26:15;3.50;99.90
3684;DHT22;1858;48.716;9.648;2022-12-19T08:29:22;3.70;99.90
3684;DHT22;1858;48.716;9.648;2022-12-19T08:31:50;3.70;99.90
3684;DHT22;1858;48.716;9.648;2022-12-19T08:34:19;3.70;99.90
3684;DHT22;1858;48.716;9.648;2022-12-19T08:36:47;3.80;99.90
3684;DHT22;1858;48.716;9.648;2022-12-19T08:39:16;3.70;99.90
3684;DHT22;1858;48.716;9.648;2022-12-19T08:41:44;3.80;99.90
3684;DHT22;1858;48.716;9.648;2022-12-19T08:44:13;3.80;99.90
3684;DHT22;1858;48.716;9.648;2022-12-19T08:46:42;3.90;99.90
3684;DHT22;1858;48.716;9.648;2022-12-19T08:49:12;3.90;99.90
3684;DHT22;1858;48.716;9.648;2022-12-19T08:51:40;4.00;99.90
3684;DHT22;1858;48.716;9.648;2022-12-19T08:54:08;4.10;99.90
3684;DHT22;1858;48.716;9.648;2022-12-19T08:56:37;4.30;99.90
3684;DHT22;1858;48.716;9.648;2022-12-19T08:59:06;4.30;95.50
3684;DHT22;1858;48.716;9.648;2022-12-19T09:01:34;4.30;89.00
3684;DHT22;1858;48.716;9.648;2022-12-19T09:04:03;4.30;94.20
3684;DHT22;1858;48.716;9.648;2022-12-19T09:06:31;4.50;83.00
3684;DHT22;1858;48.716;9.648;2022-12-19T09:09:01;4.50;70.60
3684;DHT22;1858;48.716;9.648;2022-12-19T09:11:29;4.50;71.90
3684;DHT22;1858;48.716;9.648;2022-12-19T09:13:58;4.40;67.10
3684;DHT22;1858;48.716;9.648;2022-12-19T09:16:27;4.60;57.50
3684;DHT22;1858;48.716;9.648;2022-12-19T09:18:56;4.70;58.50
3684;DHT22;1858;48.716;9.648;2022-12-19T09:21:28;4.60;40.70
3684;DHT22;1858;48.716;9.648;2022-12-19T09:23:58;4.60;51.20
3684;DHT22;1858;48.716;9.648;2022-12-19T09:26:26;4.60;55.60
3684;DHT22;1858;48.716;9.648;2022-12-19T09:28:55;4.50;50.00
3684;DHT22;1858;48.716;9.648;2022-12-19T09:31:24;4.50;52.70
3684;DHT22;1858;48.716;9.648;2022-12-19T09:33:53;4.60;55.40
3684;DHT22;1858;48.716;9.648;2022-12-19T09:36:23;4.60;56.50
3684;DHT22;1858;48.716;9.648;2022-12-19T09:38:56;4.60;56.60
3684;DHT22;1858;48.716;9.648;2022-12-19T09:47:01;4.90;38.10
3684;DHT22;1858;48.716;9.648;2022-12-19T09:49:41;4.90;40.30
3684;DHT22;1858;48.716;9.648;2022-12-19T09:52:19;5.10;45.20
3684;DHT22;1858;48.716;9.648;2022-12-19T09:54:43;5.40;43.30
3684;DHT22;1858;48.716;9.648;2022-12-19T09:57:23;5.30;17.30
3684;DHT22;1858;48.716;9.648;2022-12-19T10:00:04;5.40;22.50
3684;DHT22;1858;48.716;9.648;2022-12-19T10:02:52;5.40;11.00
3684;DHT22;1858;48.716;9.648;2022-12-19T10:05:25;5.40;13.70
3684;DHT22;1858;48.716;9.648;2022-12-19T10:07:54;5.40;16.00
3684;DHT22;1858;48.716;9.648;2022-12-19T10:10:30;5.50;14.40
3684;DHT22;1858;48.716;9.648;2022-12-19T10:13:09;5.70;7.70
3684;DHT22;1858;48.716;9.648;2022-12-19T10:15:50;5.80;8.90
3684;DHT22;1858;48.716;9.648;2022-12-19T10:18:34;5.90;6.30
3684;DHT22;1858;48.716;9.648;2022-12-19T10:21:20;6.20;1.00
3684;DHT22;1858;48.716;9.648;2022-12-19T10:23:58;6.50;1.00
3684;DHT22;1858;48.716;9.648;2022-12-19T10:26:41;6.50;1.00
3684;DHT22;1858;48.716;9.648;2022-12-19T10:29:46;6.70;1.00
3684;DHT22;1858;48.716;9.648;2022-12-19T10:32:34;6.80;1.00
3684;DHT22;1858;48.716;9.648;2022-12-19T10:35:01;6.80;1.00
3684;DHT22;1858;48.716;9.648;2022-12-19T10:37:36;6.70;1.00
3684;DHT22;1858;48.716;9.648;2022-12-19T10:40:33;6.70;1.00
3684;DHT22;1858;48.716;9.648;2022-12-19T10:45:52;6.60;1.00
3684;DHT22;1858;48.716;9.648;2022-12-19T10:48:21;6.50;1.00
3684;DHT22;1858;48.716;9.648;2022-12-19T10:50:50;6.50;1.00
3684;DHT22;1858;48.716;9.648;2022-12-19T10:53:38;6.60;1.00
3684;DHT22;1858;48.716;9.648;2022-12-19T10:56:12;6.70;1.00
3684;DHT22;1858;48.716;9.648;2022-12-19T10:58:59;6.90;1.00
3684;DHT22;1858;48.716;9.648;2022-12-19T11:01:39;6.90;1.00
3684;DHT22;1858;48.716;9.648;2022-12-19T11:07:17;7.10;1.00
3684;DHT22;1858;48.716;9.648;2022-12-19T11:09:46;7.10;1.00
3684;DHT22;1858;48.716;9.648;2022-12-19T11:12:17;7.10;1.00
3684;DHT22;1858;48.716;9.648;2022-12-19T11:17:40;6.90;1.00
3684;DHT22;1858;48.716;9.648;2022-12-19T11:20:20;7.00;1.00
3684;DHT22;1858;48.716;9.648;2022-12-19T11:23:12;7.00;1.00
3684;DHT22;1858;48.716;9.648;2022-12-19T11:25:42;7.10;1.00
3684;DHT22;1858;48.716;9.648;2022-12-19T11:28:17;7.00;1.00
3684;DHT22;1858;48.716;9.648;2022-12-19T11:31:03;6.80;1.00
3684;DHT22;1858;48.716;9.648;2022-12-19T11:33:55;6.80;1.00
3684;DHT22;1858;48.716;9.648;2022-12-19T11:36:48;6.90;1.00
3684;DHT22;1858;48.716;9.648;2022-12-19T11:39:24;7.00;1.00
3684;DHT22;1858;48.716;9.648;2022-12-19T11:44:43;7.00;1.00
3684;DHT22;1858;48.716;9.648;2022-12-19T11:47:17;7.10;1.00
3684;DHT22;1858;48.716;9.648;2022-12-19T11:49:44;7.00;1.00
3684;DHT22;1858;48.716;9.648;2022-12-19T11:52:37;7.00;1.00
3684;DHT22;1858;48.716;9.648;2022-12-19T11:55:13;7.20;1.00
3684;DHT22;1858;48.716;9.648;2022-12-19T11:57:38;7.30;1.00
3684;DHT22;1858;48.716;9.648;2022-12-19T12:00:30;7.00;1.00
3684;DHT22;1858;48.716;9.648;2022-12-19T12:03:04;7.00;1.00
3684;DHT22;1858;48.716;9.648;2022-12-19T12:05:44;7.00;1.00
3684;DHT22;1858;48.716;9.648;2022-12-19T12:14:28;6.90;1.00
3684;DHT22;1858;48.716;9.648;2022-12-19T12:17:18;7.00;1.00
3684;DHT22;1858;48.716;9.648;2022-12-19T12:20:07;7.10;1.00
3684;DHT22;1858;48.716;9.648;2022-12-19T12:23:01;7.00;1.00
3684;DHT22;1858;48.716;9.648;2022-12-19T12:34:23;7.10;1.00
3684;DHT22;1858;48.716;9.648;2022-12-19T12:40:13;7.20;1.00
3684;DHT22;1858;48.716;9.648;2022-12-19T12:45:42;7.40;1.00
3684;DHT22;1858;48.716;9.648;2022-12-19T12:51:08;7.70;1.00
3684;DHT22;1858;48.716;9.648;2022-12-19T12:53:40;7.70;1.00
3684;DHT22;1858;48.716;9.648;2022-12-19T12:56:11;7.60;1.00
3684;DHT22;1858;48.716;9.648;2022-12-19T13:06:59;7.80;1.00
3684;DHT22;1858;48.716;9.648;2022-12-19T13:09:32;7.70;1.00
3684;DHT22;1858;48.716;9.648;2022-12-19T13:12:11;7.70;1.00
3684;DHT22;1858;48.716;9.648;2022-12-19T13:14:49;7.50;1.00
3684;DHT22;1858;48.716;9.648;2022-12-19T13:17:24;7.20;1.00
3684;DHT22;1858;48.716;9.648;2022-12-19T13:22:44;7.10;1.00
3684;DHT22;1858;48.716;9.648;2022-12-19T13:36:49;6.80;1.00
3684;DHT22;1858;48.716;9.648;2022-12-19T13:39:46;6.90;1.00
3684;DHT22;1858;48.716;9.648;2022-12-19T13:42:16;6.90;1.00
3684;DHT22;1858;48.716;9.648;2022-12-19T13:45:11;6.90;1.00
3684;DHT22;1858;48.716;9.648;2022-12-19T13:47:37;6.90;1.00
3684;DHT22;1858;48.716;9.648;2022-12-19T13:52:56;6.70;1.00
3684;DHT22;1858;48.716;9.648;2022-12-19T13:55:28;6.60;1.00
3684;DHT22;1858;48.716;9.648;2022-12-19T13:57:57;6.70;1.00
3684;DHT22;1858;48.716;9.648;2022-12-19T14:00:39;6.70;1.00
3684;DHT22;1858;48.716;9.648;2022-12-19T14:03:13;6.60;1.00
3684;DHT22;1858;48.716;9.648;2022-12-19T14:05:40;6.60;1.00
3684;DHT22;1858;48.716;9.648;2022-12-19T14:10:58;6.60;1.00
3684;DHT22;1858;48.716;9.648;2022-12-19T14:13:27;6.60;1.50
3684;DHT22;1858;48.716;9.648;2022-12-19T14:16:14;6.60;3.80
3684;DHT22;1858;48.716;9.648;2022-12-19T14:19:02;6.40;8.00
3684;DHT22;1858;48.716;9.648;2022-12-19T14:21:31;6.40;11.70
3684;DHT22;1858;48.716;9.648;2022-12-19T14:24:22;6.40;17.60
3684;DHT22;1858;48.716;9.648;2022-12-19T14:26:57;6.30;23.50
3684;DHT22;1858;48.716;9.648;2022-12-19T14:29:31;6.30;31.00
3684;DHT22;1858;48.716;9.648;2022-12-19T14:32:02;6.30;38.90
3684;DHT22;1858;48.716;9.648;2022-12-19T14:34:31;6.20;47.00
3684;DHT22;1858;48.716;9.648;2022-12-19T14:37:01;6.20;46.50
3684;DHT22;1858;48.716;9.648;2022-12-19T14:39:34;6.10;61.40
3684;DHT22;1858;48.716;9.648;2022-12-19T14:42:06;6.10;62.90
3684;DHT22;1858;48.716;9.648;2022-12-19T14:44:54;6.10;72.60
3684;DHT22;1858;48.716;9.648;2022-12-19T14:47:42;6.20;68.70
3684;DHT22;1858;48.716;9.648;2022-12-19T14:50:31;6.30;66.10
3684;DHT22;1858;48.716;9.648;2022-12-19T14:53:20;6.30;58.50
3684;DHT22;1858;48.716;9.648;2022-12-19T14:55:59;6.20;62.80
3684;DHT22;1858;48.716;9.648;2022-12-19T14:58:29;6.20;64.50
3684;DHT22;1858;48.716;9.648;2022-12-19T15:00:58;6.20;68.10
3684;DHT22;1858;48.716;9.648;2022-12-19T15:03:33;6.20;71.40
3684;DHT22;1858;48.716;9.648;2022-12-19T15:06:05;6.20;69.90
3684;DHT22;1858;48.716;9.648;2022-12-19T15:08:36;6.10;74.00
3684;DHT22;1858;48.716;9.648;2022-12-19T15:11:05;6.10;73.10
3684;DHT22;1858;48.716;9.648;2022-12-19T15:13:56;6.00;83.10
3684;DHT22;1858;48.716;9.648;2022-12-19T15:16:31;5.90;99.90
3684;DHT22;1858;48.716;9.648;2022-12-19T15:19:09;6.00;99.90
3684;DHT22;1858;48.716;9.648;2022-12-19T15:21:34;5.80;98.10
3684;DHT22;1858;48.716;9.648;2022-12-19T15:24:02;5.80;99.90
3684;DHT22;1858;48.716;9.648;2022-12-19T15:26:40;5.70;99.90
3684;DHT22;1858;48.716;9.648;2022-12-19T15:29:08;5.50;99.90
3684;DHT22;1858;48.716;9.648;2022-12-19T15:31:39;5.40;99.90
3684;DHT22;1858;48.716;9.648;2022-12-19T15:34:22;5.50;99.90
3684;DHT22;1858;48.716;9.648;2022-12-19T15:36:53;5.50;99.90
3684;DHT22;1858;48.716;9.648;2022-12-19T15:39:23;5.30;99.90
3684;DHT22;1858;48.716;9.648;2022-12-19T15:41:55;5.00;99.90
3684;DHT22;1858;48.716;9.648;2022-12-19T15:44:38;4.80;99.90
3684;DHT22;1858;48.716;9.648;2022-12-19T15:47:18;4.80;99.90
3684;DHT22;1858;48.716;9.648;2022-12-19T15:50:27;4.80;99.90
3684;DHT22;1858;48.716;9.648;2022-12-19T15:52:43;4.80;99.90
3684;DHT22;1858;48.716;9.648;2022-12-19T15:55:13;4.70;99.90
3684;DHT22;1858;48.716;9.648;2022-12-19T15:57:54;4.90;99.90
3684;DHT22;1858;48.716;9.648;2022-12-19T16:00:24;5.00;99.90
3684;DHT22;1858;48.716;9.648;2022-12-19T16:02:54;4.80;99.90
3684;DHT22;1858;48.716;9.648;2022-12-19T16:30:24;4.30;99.90
3684;DHT22;1858;48.716;9.648;2022-12-19T16:32:53;4.30;99.90
3684;DHT22;1858;48.716;9.648;2022-12-19T16:35:23;4.30;99.90
3684;DHT22;1858;48.716;9.648;2022-12-19T16:37:52;4.30;99.90
3684;DHT22;1858;48.716;9.648;2022-12-19T16:40:23;4.30;99.90
3684;DHT22;1858;48.716;9.648;2022-12-19T16:43:06;4.30;99.90
3684;DHT22;1858;48.716;9.648;2022-12-19T16:45:36;4.20;99.90
3684;DHT22;1858;48.716;9.648;2022-12-19T16:48:15;4.10;99.90
3684;DHT22;1858;48.716;9.648;2022-12-19T16:50:42;4.10;99.90
3684;DHT22;1858;48.716;9.648;2022-12-19T16:53:10;4.20;99.90
3684;DHT22;1858;48.716;9.648;2022-12-19T16:55:39;4.30;99.90
3684;DHT22;1858;48.716;9.648;2022-12-19T17:00:57;4.50;99.90
3684;DHT22;1858;48.716;9.648;2022-12-19T17:06:00;4.50;99.90
3684;DHT22;1858;48.716;9.648;2022-12-19T17:08:29;4.50;99.90
3684;DHT22;1858;48.716;9.648;2022-12-19T17:10:58;4.60;99.90
3684;DHT22;1858;48.716;9.648;2022-12-19T17:13:27;4.60;99.90
3684;DHT22;1858;48.716;9.648;2022-12-19T17:15:56;4.70;99.90
3684;DHT22;1858;48.716;9.648;2022-12-19T17:18:27;4.70;99.90
3684;DHT22;1858;48.716;9.648;2022-12-19T17:20:56;4.80;99.90
3684;DHT22;1858;48.716;9.648;2022-12-19T17:23:26;4.60;99.90
3684;DHT22;1858;48.716;9.648;2022-12-19T17:25:56;4.60;99.90
3684;DHT22;1858;48.716;9.648;2022-12-19T17:28:27;4.60;99.90
3684;DHT22;1858;48.716;9.648;2022-12-19T17:30:58;4.70;99.90
3684;DHT22;1858;48.716;9.648;2022-12-19T17:33:35;4.70;99.90
3684;DHT22;1858;48.716;9.648;2022-12-19T17:36:01;4.70;99.90
3684;DHT22;1858;48.716;9.648;2022-12-19T17:38:30;4.70;99.90
3684;DHT22;1858;48.716;9.648;2022-12-19T17:40:58;4.70;99.90
3684;DHT22;1858;48.716;9.648;2022-12-19T17:43:26;4.70;99.90
3684;DHT22;1858;48.716;9.648;2022-12-19T17:45:55;4.80;99.90
3684;DHT22;1858;48.716;9.648;2022-12-19T17:48:29;4.80;99.90
3684;DHT22;1858;48.716;9.648;2022-12-19T17:50:59;4.80;99.90
3684;DHT22;1858;48.716;9.648;2022-12-19T17:53:27;4.80;99.90
3684;DHT22;1858;48.716;9.648;2022-12-19T17:55:56;4.80;99.90
3684;DHT22;1858;48.716;9.648;2022-12-19T17:58:24;4.90;99.90
3684;DHT22;1858;48.716;9.648;2022-12-19T18:01:18;4.80;99.90
3684;DHT22;1858;48.716;9.648;2022-12-19T18:03:48;4.70;99.90
3684;DHT22;1858;48.716;9.648;2022-12-19T18:06:17;4.60;99.90
3684;DHT22;1858;48.716;9.648;2022-12-19T18:08:46;4.60;99.90
3684;DHT22;1858;48.716;9.648;2022-12-19T18:11:20;4.60;99.90
3684;DHT22;1858;48.716;9.648;2022-12-19T18:13:49;4.60;99.90
3684;DHT22;1858;48.716;9.648;2022-12-19T18:16:26;4.60;99.90
3684;DHT22;1858;48.716;9.648;2022-12-19T18:18:49;4.60;99.90
3684;DHT22;1858;48.716;9.648;2022-12-19T18:21:20;4.70;99.90
3684;DHT22;1858;48.716;9.648;2022-12-19T18:23:51;4.70;99.90
3684;DHT22;1858;48.716;9.648;2022-12-19T18:26:19;4.70;99.90
3684;DHT22;1858;48.716;9.648;2022-12-19T18:28:48;4.70;99.90
3684;DHT22;1858;48.716;9.648;2022-12-19T18:31:22;4.70;99.90
3684;DHT22;1858;48.716;9.648;2022-12-19T18:36:42;4.80;99.90
3684;DHT22;1858;48.716;9.648;2022-12-19T18:39:19;4.60;99.90
3684;DHT22;1858;48.716;9.648;2022-12-19T18:42:26;4.60;99.90
3684;DHT22;1858;48.716;9.648;2022-12-19T18:44:42;4.70;99.90
3684;DHT22;1858;48.716;9.648;2022-12-19T18:47:21;4.70;99.90
3684;DHT22;1858;48.716;9.648;2022-12-19T18:49:51;4.70;99.90
3684;DHT22;1858;48.716;9.648;2022-12-19T18:52:20;4.60;99.90
3684;DHT22;1858;48.716;9.648;2022-12-19T18:54:48;4.60;99.90
3684;DHT22;1858;48.716;9.648;2022-12-19T18:57:17;4.70;99.90
3684;DHT22;1858;48.716;9.648;2022-12-19T18:59:46;4.70;99.90
3684;DHT22;1858;48.716;9.648;2022-12-19T19:02:23;4.70;99.90
3684;DHT22;1858;48.716;9.648;2022-12-19T19:04:52;4.70;99.90
3684;DHT22;1858;48.716;9.648;2022-12-19T19:07:22;4.70;99.90